createdAt,value
2023-04-18T00:02:23.133Z,101024.88
2023-04-18T00:04:50.408Z,101020.47
2023-04-18T00:07:17.305Z,101016.91
2023-04-18T00:09:44.075Z,101021.31
2023-04-18T00:12:11.032Z,101013.34
2023-04-18T00:14:38.007Z,101013.94
2023-04-18T00:17:08.796Z,101017.22
2023-04-18T00:19:37.119Z,101008.47
2023-04-18T00:22:03.629Z,100994.81
2023-04-18T00:24:30.156Z,101002.38
2023-04-18T00:26:57.094Z,100996.88
2023-04-18T00:29:23.671Z,101002.09
2023-04-18T00:31:52.663Z,100999.13
2023-04-18T00:34:19.282Z,100994.66
2023-04-18T00:36:45.830Z,100999.03
2023-04-18T00:39:12.352Z,101000.16
2023-04-18T00:41:38.903Z,100999.56
2023-04-18T00:44:05.562Z,100999.56
2023-04-18T00:46:32.149Z,101001.78
2023-04-18T00:48:58.729Z,100968.53
2023-04-18T00:51:25.623Z,100983.75
2023-04-18T00:53:52.137Z,101000.38
2023-04-18T00:56:18.738Z,100996.50
2023-04-18T00:58:45.272Z,100994.66
2023-04-18T01:01:13.362Z,101000.16
2023-04-18T01:03:40.865Z,101004.25
2023-04-18T01:06:07.762Z,100997.09
2023-04-18T01:08:34.467Z,101004.00
2023-04-18T01:11:01.016Z,101001.78
2023-04-18T01:13:27.605Z,100996.88
2023-04-18T01:15:55.607Z,101000.97
2023-04-18T01:18:22.586Z,100994.66
2023-04-18T01:20:50.476Z,100992.41
2023-04-18T01:23:19.688Z,100979.59
2023-04-18T01:25:46.364Z,100984.50
2023-04-18T01:28:13.652Z,100981.22
2023-04-18T01:30:40.288Z,100980.41
2023-04-18T01:33:06.888Z,100976.53
2023-04-18T01:35:33.520Z,100974.31
2023-04-18T01:38:00.177Z,100975.72
2023-04-18T01:40:27.271Z,100969.50
2023-04-18T01:42:53.829Z,100959.09
2023-04-18T01:45:20.331Z,100968.38
2023-04-18T01:47:47.083Z,100938.38
2023-04-18T01:50:13.748Z,100966.75
2023-04-18T01:52:42.591Z,100955.34
2023-04-18T01:55:09.586Z,100957.72
2023-04-18T01:57:36.724Z,100967.56
2023-04-18T02:00:06.102Z,100963.47
2023-04-18T02:02:41.108Z,100965.09
2023-04-18T02:05:08.164Z,100960.06
2023-04-18T02:07:38.216Z,100954.97
2023-04-18T02:10:05.213Z,100941.97
2023-04-18T02:12:31.945Z,100962.88
2023-04-18T02:14:59.557Z,100957.41
2023-04-18T02:17:26.207Z,100963.69
2023-04-18T02:19:54.433Z,100946.56
2023-04-18T02:22:21.081Z,100962.88
2023-04-18T02:24:47.614Z,100958.00
2023-04-18T02:27:15.242Z,100963.41
2023-04-18T02:29:41.858Z,100949.31
2023-04-18T02:32:09.033Z,100959.56
2023-04-18T02:34:36.355Z,100948.19
2023-04-18T02:37:03.032Z,100961.75
2023-04-18T02:39:29.567Z,100963.69
2023-04-18T02:41:56.103Z,100959.84
2023-04-18T02:44:24.705Z,100973.78
2023-04-18T02:46:51.455Z,100971.34
2023-04-18T02:49:18.470Z,100958.53
2023-04-18T02:51:45.127Z,100962.28
2023-04-18T02:54:11.978Z,100954.13
2023-04-18T02:56:53.809Z,100956.59
2023-04-18T02:59:37.557Z,100963.09
2023-04-18T03:02:13.271Z,100960.38
2023-04-18T03:04:47.309Z,100955.69
2023-04-18T03:07:14.048Z,100955.19
2023-04-18T03:09:41.502Z,100948.63
2023-04-18T03:12:17.431Z,100949.22
2023-04-18T03:14:44.546Z,100926.97
2023-04-18T03:17:12.902Z,100957.41
2023-04-18T03:19:42.989Z,100947.59
2023-04-18T03:22:13.385Z,100936.25
2023-04-18T03:24:48.725Z,100963.69
2023-04-18T03:27:16.824Z,100959.84
2023-04-18T03:29:45.263Z,100961.97
2023-04-18T03:32:12.527Z,100956.88
2023-04-18T03:34:39.103Z,100968.91
2023-04-18T03:37:07.720Z,100962.28
2023-04-18T03:39:40.612Z,100959.84
2023-04-18T03:42:07.362Z,100937.28
2023-04-18T03:44:34.718Z,100966.16
2023-04-18T03:47:01.303Z,100947.59
2023-04-18T03:49:30.286Z,100959.34
2023-04-18T03:51:56.902Z,100943.50
2023-04-18T03:54:25.312Z,100957.94
2023-04-18T03:56:51.869Z,100941.50
2023-04-18T03:59:18.907Z,100948.63
2023-04-18T04:01:49.249Z,100963.31
2023-04-18T04:04:16.384Z,100954.56
2023-04-18T04:06:43.161Z,100959.25
2023-04-18T04:09:09.821Z,100953.53
2023-04-18T04:11:36.444Z,100963.41
2023-04-18T04:14:04.079Z,100961.25
2023-04-18T04:16:37.603Z,100970.81
2023-04-18T04:19:04.841Z,100961.75
2023-04-18T04:21:37.600Z,100969.41
2023-04-18T04:24:06.911Z,100967.19
2023-04-18T04:26:37.690Z,100976.25
2023-04-18T04:29:13.722Z,100973.72
2023-04-18T04:31:42.179Z,100956.59
2023-04-18T04:34:08.888Z,100975.34
2023-04-18T04:36:36.066Z,100983.09
2023-04-18T04:39:05.225Z,100976.53
2023-04-18T04:41:42.547Z,100979.81
2023-04-18T04:44:10.020Z,100983.00
2023-04-18T04:46:40.152Z,100984.69
2023-04-18T04:49:13.670Z,100981.91
2023-04-18T04:51:41.956Z,100994.50
2023-04-18T04:54:08.792Z,100992.88
2023-04-18T04:56:35.437Z,100976.84
2023-04-18T04:59:02.877Z,100993.41
2023-04-18T05:01:36.238Z,100999.06
2023-04-18T05:04:03.834Z,100996.03
2023-04-18T05:06:31.166Z,100998.72
2023-04-18T05:08:59.516Z,101000.03
2023-04-18T05:11:26.100Z,101004.91
2023-04-18T05:13:52.722Z,101008.19
2023-04-18T05:16:19.315Z,101008.78
2023-04-18T05:18:46.039Z,101011.47
2023-04-18T05:21:12.583Z,101004.84
2023-04-18T05:23:39.873Z,100994.78
2023-04-18T05:26:06.498Z,101009.69
2023-04-18T05:28:33.079Z,101017.06
2023-04-18T05:31:02.299Z,101011.56
2023-04-18T05:33:29.460Z,101015.72
2023-04-18T05:35:56.263Z,100985.66
2023-04-18T05:38:22.932Z,101011.34
2023-04-18T05:40:51.086Z,101014.81
2023-04-18T05:43:20.688Z,101000.13
2023-04-18T05:45:47.434Z,101018.38
2023-04-18T05:48:14.078Z,101019.72
2023-04-18T05:50:40.681Z,101026.88
2023-04-18T05:53:08.394Z,101022.19
2023-04-18T05:55:34.944Z,101021.88
2023-04-18T05:58:01.501Z,101020.47
2023-04-18T06:00:28.408Z,101024.03
2023-04-18T06:02:55.269Z,101021.81
2023-04-18T06:05:22.107Z,101030.56
2023-04-18T06:07:48.874Z,101023.44
2023-04-18T06:10:15.774Z,101034.13
2023-04-18T06:12:42.436Z,101039.94
2023-04-18T06:15:09.849Z,101004.19
2023-04-18T06:17:36.468Z,101031.59
2023-04-18T06:20:04.869Z,101040.38
2023-04-18T06:22:31.571Z,101041.19
2023-04-18T06:24:58.158Z,101041.78
2023-04-18T06:27:31.196Z,101038.44
2023-04-18T06:29:58.559Z,101040.09
2023-04-18T06:32:25.279Z,101037.34
2023-04-18T06:34:52.893Z,101025.25
2023-04-18T06:37:19.499Z,101029.63
2023-04-18T06:39:46.049Z,101031.72
2023-04-18T06:42:12.582Z,101030.88
2023-04-18T06:44:44.239Z,101025.59
2023-04-18T06:47:10.864Z,101033.72
2023-04-18T06:49:37.422Z,101013.31
2023-04-18T06:52:03.934Z,101020.00
2023-04-18T06:54:30.547Z,101027.84
2023-04-18T06:56:57.305Z,101027.25
2023-04-18T06:59:23.908Z,101019.63
2023-04-18T07:01:51.056Z,101031.28
2023-04-18T07:04:17.708Z,101031.66
2023-04-18T07:06:44.525Z,101028.31
2023-04-18T07:09:11.333Z,101036.19
2023-04-18T07:11:39.062Z,101032.75
2023-04-18T07:14:05.570Z,101030.06
2023-04-18T07:16:32.201Z,101042.94
2023-04-18T07:18:58.853Z,101026.00
2023-04-18T07:21:25.612Z,101038.47
2023-04-18T07:23:52.232Z,101042.84
2023-04-18T07:26:19.029Z,101043.44
2023-04-18T07:28:45.646Z,101034.38
2023-04-18T07:31:14.348Z,101039.06
2023-04-18T07:33:41.000Z,101050.59
2023-04-18T07:36:07.766Z,101046.81
2023-04-18T07:38:35.426Z,101061.75
2023-04-18T07:41:02.080Z,101055.66
2023-04-18T07:43:28.703Z,101060.56
2023-04-18T07:45:55.541Z,101060.03
2023-04-18T07:48:22.691Z,101058.56
2023-04-18T07:50:49.458Z,101062.25
2023-04-18T07:53:16.336Z,101064.84
2023-04-18T07:55:45.715Z,101072.78
2023-04-18T07:58:12.627Z,101070.34
2023-04-18T08:00:39.311Z,101048.09
2023-04-18T08:03:07.626Z,101074.34
2023-04-18T08:05:34.467Z,101076.88
2023-04-18T08:08:01.229Z,101075.56
2023-04-18T08:10:27.959Z,101069.81
2023-04-18T08:12:54.568Z,101064.91
2023-04-18T08:15:21.229Z,101073.66
2023-04-18T08:17:49.170Z,101078.31
2023-04-18T08:20:15.859Z,101072.19
2023-04-18T08:23:01.292Z,101069.06
2023-04-18T08:25:29.284Z,101062.94
2023-04-18T08:27:55.955Z,101075.31
2023-04-18T08:30:22.506Z,101069.31
2023-04-18T08:32:49.555Z,101075.53
2023-04-18T08:35:16.395Z,101081.91
2023-04-18T08:37:43.414Z,101084.44
2023-04-18T08:40:10.163Z,101076.34
2023-04-18T08:42:39.445Z,101068.00
2023-04-18T08:45:06.842Z,101066.38
2023-04-18T08:47:35.118Z,101068.47
2023-04-18T08:50:01.940Z,101070.59
2023-04-18T08:52:29.495Z,101080.50
2023-04-18T08:54:57.205Z,101068.47
2023-04-18T08:57:26.746Z,101076.63
2023-04-18T08:59:54.017Z,101071.66
2023-04-18T09:02:23.902Z,101066.75
2023-04-18T09:04:53.010Z,101049.31
2023-04-18T09:07:20.747Z,101070.59
2023-04-18T09:09:48.351Z,101066.97
2023-04-18T09:12:19.476Z,101060.66
2023-04-18T09:14:46.977Z,101064.66
2023-04-18T09:17:18.190Z,101066.22
2023-04-18T09:19:46.388Z,101067.56
2023-04-18T09:22:13.147Z,101053.59
2023-04-18T09:24:40.113Z,101057.47
2023-04-18T09:27:11.922Z,101052.56
2023-04-18T09:29:47.103Z,101058.06
2023-04-18T09:32:40.033Z,101063.19
2023-04-18T09:35:06.836Z,101061.31
2023-04-18T09:37:33.386Z,101065.78
2023-04-18T09:40:00.010Z,101044.66
2023-04-18T09:42:28.818Z,101065.66
2023-04-18T09:45:04.060Z,101069.22
2023-04-18T09:47:31.360Z,101071.44
2023-04-18T09:49:58.043Z,101070.53
2023-04-18T09:52:25.796Z,101061.00
2023-04-18T09:54:58.270Z,101071.28
2023-04-18T09:57:27.087Z,101074.03
2023-04-18T10:00:24.188Z,101055.19
2023-04-18T10:03:09.830Z,101066.97
2023-04-18T10:05:38.318Z,101062.69
2023-04-18T10:08:05.778Z,101062.09
2023-04-18T10:10:32.586Z,101071.13
2023-04-18T10:13:00.139Z,101040.84
2023-04-18T10:15:28.062Z,101068.19
2023-04-18T10:18:04.579Z,101057.19
2023-04-18T10:20:32.834Z,101060.78
2023-04-18T10:22:59.563Z,101062.63
2023-04-18T10:25:38.201Z,101045.59
2023-04-18T10:28:08.329Z,101055.19
2023-04-18T10:30:40.975Z,101056.59
2023-04-18T10:33:31.055Z,101047.25
2023-04-18T10:36:08.492Z,101043.38
2023-04-18T10:39:05.764Z,101050.50
2023-04-18T10:41:33.212Z,101044.72
2023-04-18T10:44:09.149Z,101045.00
2023-04-18T10:46:36.584Z,101036.25
2023-04-18T10:49:18.861Z,101035.66
2023-04-18T10:51:49.581Z,101021.59
2023-04-18T10:54:38.190Z,101027.22
2023-04-18T10:57:05.346Z,101017.44
2023-04-18T10:59:32.909Z,101024.16
2023-04-18T11:02:11.987Z,101016.31
2023-04-18T11:04:39.295Z,101014.25
2023-04-18T11:07:05.931Z,101018.53
2023-04-18T11:09:32.504Z,101018.69
2023-04-18T11:12:07.355Z,101017.16
2023-04-18T11:14:43.951Z,101017.38
2023-04-18T11:17:17.722Z,101018.78
2023-04-18T11:19:44.403Z,101002.75
2023-04-18T11:22:11.638Z,101015.84
2023-04-18T11:24:38.245Z,100997.94
2023-04-18T11:27:04.905Z,101016.91
2023-04-18T11:29:31.562Z,101019.22
2023-04-18T11:31:58.776Z,100996.22
2023-04-18T11:34:30.175Z,101006.34
2023-04-18T11:36:56.738Z,100995.88
2023-04-18T11:39:23.331Z,100994.56
2023-04-18T11:41:53.093Z,100984.56
2023-04-18T11:44:23.547Z,100991.31
2023-04-18T11:46:51.399Z,100985.81
2023-04-18T11:49:31.975Z,100984.09
2023-04-18T11:51:59.482Z,100992.94
2023-04-18T11:54:42.223Z,100973.28
2023-04-18T11:57:27.324Z,100976.50
2023-04-18T11:59:59.009Z,100964.81
2023-04-18T12:02:45.819Z,100979.88
2023-04-18T12:05:14.517Z,100979.16
2023-04-18T12:07:42.541Z,100989.84
2023-04-18T12:10:23.674Z,100988.75
2023-04-18T12:12:54.031Z,100987.63
2023-04-18T12:15:21.702Z,100991.50
2023-04-18T12:17:48.561Z,100965.38
2023-04-18T12:20:16.013Z,100987.69
2023-04-18T12:22:49.566Z,100984.44
2023-04-18T12:25:24.964Z,100968.03
2023-04-18T12:28:00.720Z,100987.44
2023-04-18T12:30:31.742Z,100981.41
2023-04-18T12:33:00.339Z,100990.72
2023-04-18T12:35:27.171Z,100977.03
2023-04-18T12:37:55.056Z,100982.13
2023-04-18T12:40:22.900Z,100986.41
2023-04-18T12:42:50.388Z,100983.13
2023-04-18T12:45:17.409Z,100966.19
2023-04-18T12:47:45.692Z,100987.00
2023-04-18T12:50:18.195Z,100979.25
2023-04-18T12:52:45.024Z,100978.66
2023-04-18T12:55:11.816Z,100970.94
2023-04-18T12:57:38.461Z,100969.72
2023-04-18T13:00:10.303Z,100985.06
2023-04-18T13:02:48.860Z,100987.91
2023-04-18T13:05:16.705Z,100976.38
2023-04-18T13:07:43.454Z,100973.53
2023-04-18T13:10:11.744Z,100966.09
2023-04-18T13:12:39.492Z,100970.59
2023-04-18T13:15:07.043Z,100966.91
2023-04-18T13:17:33.803Z,100963.88
2023-04-18T13:20:00.741Z,100968.56
2023-04-18T13:22:28.437Z,100964.38
2023-04-18T13:24:55.154Z,100954.28
2023-04-18T13:27:21.724Z,100963.88
2023-04-18T13:29:48.339Z,100960.81
2023-04-18T13:32:15.047Z,100963.06
2023-04-18T13:34:46.022Z,100962.47
2023-04-18T13:37:13.084Z,100962.75
2023-04-18T13:39:40.197Z,100952.25
2023-04-18T13:42:07.749Z,100953.78
2023-04-18T13:44:37.753Z,100965.69
2023-04-18T13:47:05.170Z,100973.75
2023-04-18T13:49:32.524Z,100970.38
2023-04-18T13:51:59.120Z,100964.69
2023-04-18T13:54:26.590Z,100966.72
2023-04-18T13:57:03.074Z,100965.91
2023-04-18T13:59:31.184Z,100965.41
2023-04-18T14:01:58.019Z,100954.69
2023-04-18T14:04:24.981Z,100950.59
2023-04-18T14:06:52.097Z,100961.41
2023-04-18T14:09:18.800Z,100952.53
2023-04-18T14:11:46.198Z,100923.31
2023-04-18T14:14:12.869Z,100950.09
2023-04-18T14:16:39.508Z,100949.16
2023-04-18T14:19:06.521Z,100955.50
2023-04-18T14:21:33.350Z,100944.97
2023-04-18T14:24:00.128Z,100947.84
2023-04-18T14:26:26.666Z,100947.75
2023-04-18T14:28:53.274Z,100943.06
2023-04-18T14:31:19.980Z,100953.69
2023-04-18T14:33:46.631Z,100941.13
2023-04-18T14:36:15.125Z,100940.22
2023-04-18T14:38:42.136Z,100948.59
2023-04-18T14:41:08.732Z,100938.31
2023-04-18T14:43:35.398Z,100950.97
2023-04-18T14:46:02.095Z,100949.34
2023-04-18T14:48:28.838Z,100944.47
2023-04-18T14:50:59.108Z,100946.56
2023-04-18T14:53:26.362Z,100960.31
2023-04-18T14:55:52.981Z,100957.75
2023-04-18T14:58:19.530Z,100950.63
2023-04-18T15:00:46.223Z,100960.19
2023-04-18T15:03:13.034Z,100954.41
2023-04-18T15:05:42.940Z,100940.72
2023-04-18T15:08:10.982Z,100951.13
2023-04-18T15:10:38.346Z,100954.91
2023-04-18T15:13:05.217Z,100941.88
2023-04-18T15:15:35.380Z,100949.00
2023-04-18T15:18:02.625Z,100942.47
2023-04-18T15:20:29.678Z,100944.00
2023-04-18T15:22:56.881Z,100944.09
2023-04-18T15:25:23.612Z,100945.22
2023-04-18T15:27:50.190Z,100946.34
2023-04-18T15:30:16.794Z,100945.50
2023-04-18T15:32:44.244Z,100945.31
2023-04-18T15:35:11.118Z,100947.78
2023-04-18T15:37:37.776Z,100945.84
2023-04-18T15:40:06.832Z,100948.59
2023-04-18T15:42:33.692Z,100952.66
2023-04-18T15:45:00.378Z,100936.25
2023-04-18T15:47:27.105Z,100946.13
2023-04-18T15:49:53.801Z,100946.56
2023-04-18T15:52:20.470Z,100942.06
2023-04-18T15:54:47.100Z,100940.84
2023-04-18T15:57:13.860Z,100941.47
2023-04-18T15:59:40.496Z,100937.16
2023-04-18T16:02:08.081Z,100940.34
2023-04-18T16:04:34.829Z,100943.59
2023-04-18T16:07:01.578Z,100945.31
2023-04-18T16:09:28.269Z,100943.47
2023-04-18T16:11:54.913Z,100938.19
2023-04-18T16:14:21.537Z,100944.00
2023-04-18T16:16:48.205Z,100945.50
2023-04-18T16:19:16.645Z,100939.19
2023-04-18T16:21:43.203Z,100945.03
2023-04-18T16:24:09.791Z,100920.66
2023-04-18T16:26:36.449Z,100939.59
2023-04-18T16:29:03.046Z,100949.00
2023-04-18T16:31:29.674Z,100946.34
2023-04-18T16:33:56.453Z,100948.19
2023-04-18T16:36:23.040Z,100949.59
2023-04-18T16:38:49.702Z,100943.50
2023-04-18T16:41:16.328Z,100948.59
2023-04-18T16:43:42.973Z,100951.63
2023-04-18T16:46:11.608Z,100960.34
2023-04-18T16:48:38.746Z,100957.72
2023-04-18T16:51:05.776Z,100954.50
2023-04-18T16:53:32.414Z,100963.38
2023-04-18T16:56:00.821Z,100957.06
2023-04-18T16:58:27.449Z,100963.38
2023-04-18T17:00:54.069Z,100961.94
2023-04-18T17:03:20.874Z,100953.53
2023-04-18T17:05:47.624Z,100960.31
2023-04-18T17:08:14.164Z,100917.34
2023-04-18T17:10:40.799Z,100956.72
2023-04-18T17:13:07.745Z,100963.34
2023-04-18T17:15:38.350Z,100964.16
2023-04-18T17:18:05.165Z,100967.13
2023-04-18T17:20:31.943Z,100967.53
2023-04-18T17:22:58.582Z,100977.09
2023-04-18T17:25:25.191Z,100967.13
2023-04-18T17:27:51.858Z,100977.50
2023-04-18T17:30:18.609Z,100980.19
2023-04-18T17:32:49.222Z,100984.03
2023-04-18T17:35:16.390Z,100978.75
2023-04-18T17:37:43.106Z,100985.69
2023-04-18T17:40:10.264Z,100986.28
2023-04-18T17:42:37.005Z,100993.00
2023-04-18T17:45:07.580Z,100985.06
2023-04-18T17:47:34.609Z,100997.50
2023-04-18T17:50:01.392Z,100989.47
2023-04-18T17:52:29.229Z,100994.56
2023-04-18T17:54:56.476Z,100997.41
2023-04-18T17:57:23.479Z,101004.31
2023-04-18T17:59:50.237Z,101002.19
2023-04-18T18:02:17.095Z,101005.66
2023-04-18T18:04:44.069Z,101006.69
2023-04-18T18:07:10.909Z,101007.59
2023-04-18T18:09:37.719Z,101016.13
2023-04-18T18:12:07.017Z,101021.63
2023-04-18T18:14:33.659Z,101010.41
2023-04-18T18:17:00.674Z,101014.59
2023-04-18T18:19:27.308Z,101018.78
2023-04-18T18:21:56.551Z,101018.53
2023-04-18T18:24:25.522Z,101020.59
2023-04-18T18:26:52.320Z,101028.34
2023-04-18T18:29:19.773Z,101033.28
2023-04-18T18:31:46.473Z,101027.97
2023-04-18T18:34:13.119Z,101023.78
2023-04-18T18:36:40.263Z,101032.03
2023-04-18T18:39:06.963Z,101044.47
2023-04-18T18:41:33.652Z,101044.72
2023-04-18T18:44:00.355Z,101046.72
2023-04-18T18:46:27.656Z,101035.53
2023-04-18T18:48:54.376Z,101055.06
2023-04-18T18:51:21.068Z,101056.78
2023-04-18T18:53:47.731Z,101059.34
2023-04-18T18:56:14.611Z,101065.31
2023-04-18T18:58:43.659Z,101057.59
2023-04-18T19:01:11.573Z,101064.84
2023-04-18T19:03:38.573Z,101068.66
2023-04-18T19:06:07.275Z,101056.91
2023-04-18T19:08:34.177Z,101066.47
2023-04-18T19:11:00.954Z,101065.63
2023-04-18T19:13:27.705Z,101079.91
2023-04-18T19:15:54.398Z,101084.34
2023-04-18T19:18:21.344Z,101082.66
2023-04-18T19:20:50.032Z,101084.28
2023-04-18T19:23:20.008Z,101093.56
2023-04-18T19:25:46.969Z,101086.44
2023-04-18T19:28:14.427Z,101095.34
2023-04-18T19:30:43.372Z,101098.41
2023-04-18T19:33:10.887Z,101104.41
2023-04-18T19:35:42.636Z,101099.22
2023-04-18T19:38:10.766Z,101104.13
2023-04-18T19:40:37.863Z,101098.31
2023-04-18T19:43:07.867Z,101107.31
2023-04-18T19:45:34.812Z,101103.97
2023-04-18T19:48:02.354Z,101112.59
2023-04-18T19:50:29.259Z,101097.28
2023-04-18T19:52:56.583Z,101113.63
2023-04-18T19:55:25.430Z,101113.03
2023-04-18T19:57:58.997Z,101114.38
2023-04-18T20:00:27.145Z,101116.91
2023-04-18T20:02:56.343Z,101109.75
2023-04-18T20:05:25.455Z,101107.91
2023-04-18T20:07:52.181Z,101116.59
2023-04-18T20:10:24.743Z,101118.09
2023-04-18T20:12:51.505Z,101116.66
2023-04-18T20:15:18.356Z,101118.53
2023-04-18T20:17:45.069Z,101124.84
2023-04-18T20:20:12.422Z,101129.53
2023-04-18T20:22:40.385Z,101127.91
2023-04-18T20:25:07.728Z,101129.00
2023-04-18T20:27:34.513Z,101121.88
2023-04-18T20:30:01.207Z,101132.56
2023-04-18T20:32:28.070Z,101098.25
2023-04-18T20:34:54.776Z,101127.44
2023-04-18T20:37:21.585Z,101130.19
2023-04-18T20:39:48.270Z,101125.81
2023-04-18T20:42:14.875Z,101113.03
2023-04-18T20:44:46.914Z,101125.00
2023-04-18T20:47:15.490Z,101128.28
2023-04-18T20:49:42.660Z,101126.19
2023-04-18T20:52:14.313Z,101123.16
2023-04-18T20:54:41.763Z,101123.00
2023-04-18T20:57:08.411Z,101115.13
2023-04-18T20:59:35.190Z,101127.16
2023-04-18T21:02:02.069Z,101119.00
2023-04-18T21:04:29.323Z,101131.56
2023-04-18T21:06:56.096Z,101132.22
2023-04-18T21:09:23.074Z,101107.13
2023-04-18T21:11:49.654Z,101128.13
2023-04-18T21:14:17.212Z,101110.97
2023-04-18T21:16:44.057Z,101139.97
2023-04-18T21:19:11.067Z,101132.09
2023-04-18T21:21:37.675Z,101139.75
2023-04-18T21:24:05.611Z,101142.63
2023-04-18T21:26:32.369Z,101144.25
2023-04-18T21:29:04.024Z,101140.09
2023-04-18T21:31:32.642Z,101140.63
2023-04-18T21:34:00.949Z,101148.34
2023-04-18T21:36:28.040Z,101143.16
2023-04-18T21:38:55.192Z,101142.03
2023-04-18T21:41:22.134Z,101121.91
2023-04-18T21:43:49.005Z,101138.16
2023-04-18T21:46:15.668Z,101145.31
2023-04-18T21:48:43.742Z,101142.78
2023-04-18T21:51:10.878Z,101136.84
2023-04-18T21:53:38.042Z,101145.63
2023-04-18T21:56:05.218Z,101146.19
2023-04-18T21:58:31.797Z,101128.19
2023-04-18T22:00:58.427Z,101137.44
2023-04-18T22:03:26.354Z,101145.63
2023-04-18T22:05:53.315Z,101135.22
2023-04-18T22:08:20.262Z,101144.50
2023-04-18T22:10:50.322Z,101137.66
2023-04-18T22:13:18.953Z,101141.75
2023-04-18T22:15:46.030Z,101137.97
2023-04-18T22:18:14.022Z,101143.50
2023-04-18T22:20:43.961Z,101138.81
2023-04-18T22:23:10.598Z,101127.63
2023-04-18T22:25:37.302Z,101136.06
2023-04-18T22:28:04.131Z,101138.00
2023-04-18T22:30:31.357Z,101134.75
2023-04-18T22:32:58.581Z,101134.16
2023-04-18T22:35:25.841Z,101132.28
2023-04-18T22:37:52.343Z,101130.94
2023-04-18T22:40:18.941Z,101136.25
2023-04-18T22:42:45.589Z,101136.31
2023-04-18T22:45:13.498Z,101139.63
2023-04-18T22:47:40.348Z,101135.03
2023-04-18T22:50:07.836Z,101144.63
2023-04-18T22:52:34.431Z,101143.06
2023-04-18T22:55:03.988Z,101145.13
2023-04-18T22:57:30.736Z,101118.16
2023-04-18T22:59:57.527Z,101139.19
2023-04-18T23:02:24.330Z,101138.16
2023-04-18T23:04:51.277Z,101148.56
2023-04-18T23:07:17.850Z,101136.00
2023-04-18T23:09:44.702Z,101138.75
2023-04-18T23:12:11.272Z,101130.59
2023-04-18T23:14:38.809Z,101143.13
2023-04-18T23:17:08.027Z,101155.53
2023-04-18T23:19:34.532Z,101138.53
2023-04-18T23:22:01.127Z,101147.06
2023-04-18T23:24:27.743Z,101129.03
2023-04-18T23:26:54.248Z,101141.59
2023-04-18T23:29:20.781Z,101143.22
2023-04-18T23:31:47.364Z,101144.03
2023-04-18T23:34:14.085Z,101140.47
2023-04-18T23:36:40.881Z,101138.03
2023-04-18T23:39:08.576Z,101140.22
2023-04-18T23:41:35.109Z,101138.31
2023-04-18T23:44:02.048Z,101140.00
2023-04-18T23:46:28.687Z,101130.19
2023-04-18T23:48:55.248Z,101144.91
2023-04-18T23:51:22.349Z,101138.31
2023-04-18T23:53:48.867Z,101136.69
2023-04-18T23:56:15.490Z,101132.34
2023-04-18T23:58:42.061Z,101141.63
